createdAt,value
2019-06-08T00:01:20.571Z,14.60
2019-06-08T00:03:49.518Z,14.60
2019-06-08T00:06:17.091Z,14.60
2019-06-08T00:08:44.628Z,14.50
2019-06-08T00:11:12.777Z,14.60
2019-06-08T00:13:40.379Z,14.60
2019-06-08T00:16:07.847Z,14.60
2019-06-08T00:18:35.497Z,14.60
2019-06-08T00:21:03.031Z,14.50
2019-06-08T00:23:30.531Z,14.50
2019-06-08T00:25:58.138Z,14.50
2019-06-08T00:28:25.842Z,14.50
2019-06-08T00:30:53.478Z,14.50
2019-06-08T00:33:22.656Z,14.50
2019-06-08T00:35:50.465Z,14.40
2019-06-08T00:38:18.856Z,14.40
2019-06-08T00:40:46.438Z,14.40
2019-06-08T00:43:15.045Z,14.40
2019-06-08T00:45:42.726Z,14.30
2019-06-08T00:48:10.194Z,14.30
2019-06-08T00:50:37.744Z,14.30
2019-06-08T00:53:05.253Z,14.30
2019-06-08T00:55:32.702Z,14.30
2019-06-08T00:58:00.293Z,14.30
2019-06-08T01:00:28.127Z,14.30
2019-06-08T01:02:55.609Z,14.30
2019-06-08T01:05:23.981Z,14.20
2019-06-08T01:07:52.628Z,14.20
2019-06-08T01:10:21.320Z,14.20
2019-06-08T01:12:48.919Z,14.20
2019-06-08T01:15:17.012Z,14.20
2019-06-08T01:17:44.637Z,14.20
2019-06-08T01:20:12.343Z,14.20
2019-06-08T01:22:39.895Z,14.20
2019-06-08T01:25:07.538Z,14.20
2019-06-08T01:27:35.045Z,14.20
2019-06-08T01:30:03.569Z,14.20
2019-06-08T01:32:31.360Z,14.10
2019-06-08T01:35:00.099Z,14.20
2019-06-08T01:37:27.559Z,14.20
2019-06-08T01:39:55.043Z,14.20
2019-06-08T01:42:23.418Z,14.10
2019-06-08T01:44:51.045Z,14.10
2019-06-08T01:47:18.541Z,14.10
2019-06-08T01:49:45.998Z,14.20
2019-06-08T01:52:13.519Z,14.10
2019-06-08T01:54:41.060Z,14.20
2019-06-08T01:57:08.539Z,14.20
2019-06-08T01:59:36.036Z,14.20
2019-06-08T02:02:03.617Z,14.20
2019-06-08T02:04:33.002Z,14.20
2019-06-08T02:07:00.634Z,14.20
2019-06-08T02:09:28.685Z,14.20
2019-06-08T02:11:56.313Z,14.20
2019-06-08T02:14:25.031Z,14.20
2019-06-08T02:16:53.678Z,14.20
2019-06-08T02:19:21.146Z,14.30
2019-06-08T02:21:48.819Z,14.30
2019-06-08T02:24:16.423Z,14.20
2019-06-08T02:26:44.025Z,14.20
2019-06-08T02:29:11.481Z,14.20
2019-06-08T02:31:39.079Z,14.20
2019-06-08T02:34:06.537Z,14.20
2019-06-08T02:36:35.890Z,14.20
2019-06-08T02:39:04.851Z,14.20
2019-06-08T02:41:33.123Z,14.20
2019-06-08T02:44:00.693Z,14.20
2019-06-08T02:46:29.083Z,14.30
2019-06-08T02:49:04.089Z,14.30
2019-06-08T02:51:28.703Z,14.30
2019-06-08T02:53:56.668Z,14.30
2019-06-08T02:56:26.411Z,14.30
2019-06-08T02:58:56.896Z,14.30
2019-06-08T03:01:26.247Z,14.40
2019-06-08T03:03:55.070Z,14.40
2019-06-08T03:06:25.085Z,14.40
2019-06-08T03:08:55.990Z,14.40
2019-06-08T03:11:24.949Z,14.40
2019-06-08T03:13:56.480Z,14.40
2019-06-08T03:16:24.523Z,14.40
2019-06-08T03:18:52.014Z,14.30
2019-06-08T03:21:19.841Z,14.30
2019-06-08T03:23:47.398Z,14.30
2019-06-08T03:26:14.858Z,14.40
2019-06-08T03:28:44.383Z,14.30
2019-06-08T03:31:12.098Z,14.40
2019-06-08T03:33:47.445Z,14.30
2019-06-08T03:36:09.105Z,14.30
2019-06-08T03:38:37.616Z,14.30
2019-06-08T03:41:05.291Z,14.30
2019-06-08T03:43:32.838Z,14.30
2019-06-08T03:46:00.308Z,14.30
2019-06-08T03:48:27.846Z,14.40
2019-06-08T03:50:55.328Z,14.40
2019-06-08T03:53:22.905Z,14.30
2019-06-08T03:55:50.337Z,14.30
2019-06-08T03:58:17.869Z,14.30
2019-06-08T04:00:47.128Z,14.30
2019-06-08T04:03:14.916Z,14.30
2019-06-08T04:05:44.237Z,14.30
2019-06-08T04:08:11.819Z,14.30
2019-06-08T04:10:39.888Z,14.40
2019-06-08T04:13:11.330Z,14.40
2019-06-08T04:15:37.977Z,14.40
2019-06-08T04:18:07.106Z,14.40
2019-06-08T04:20:34.615Z,14.40
2019-06-08T04:23:02.264Z,14.50
2019-06-08T04:25:29.871Z,14.50
2019-06-08T04:27:57.393Z,14.50
2019-06-08T04:30:24.989Z,14.50
2019-06-08T04:32:52.510Z,14.50
2019-06-08T04:35:20.087Z,14.50
2019-06-08T04:37:47.628Z,14.60
2019-06-08T04:40:15.291Z,14.60
2019-06-08T04:42:44.399Z,14.70
2019-06-08T04:45:12.683Z,14.70
2019-06-08T04:47:41.079Z,14.80
2019-06-08T04:50:21.491Z,14.80
2019-06-08T04:52:40.818Z,14.80
2019-06-08T04:55:08.670Z,14.70
2019-06-08T04:57:36.255Z,14.80
2019-06-08T05:00:11.936Z,14.80
2019-06-08T05:02:34.935Z,14.80
2019-06-08T05:05:02.543Z,14.90
2019-06-08T05:07:30.036Z,14.90
2019-06-08T05:09:57.504Z,15.00
2019-06-08T05:12:25.080Z,15.00
2019-06-08T05:14:52.625Z,15.10
2019-06-08T05:17:20.151Z,15.10
2019-06-08T05:19:47.603Z,15.10
2019-06-08T05:22:15.085Z,15.20
2019-06-08T05:24:43.487Z,15.30
2019-06-08T05:27:11.232Z,15.30
2019-06-08T05:29:39.210Z,15.30
2019-06-08T05:32:06.865Z,15.40
2019-06-08T05:34:35.625Z,15.40
2019-06-08T05:37:03.111Z,15.40
2019-06-08T05:39:30.597Z,15.40
2019-06-08T05:41:58.166Z,15.40
2019-06-08T05:44:25.621Z,15.40
2019-06-08T05:46:53.216Z,15.50
2019-06-08T05:49:20.777Z,15.60
2019-06-08T05:51:48.357Z,15.70
2019-06-08T05:54:15.907Z,15.70
2019-06-08T05:56:43.856Z,15.70
2019-06-08T05:59:11.598Z,15.70
2019-06-08T06:01:40.403Z,15.70
2019-06-08T06:04:08.231Z,15.70
2019-06-08T06:06:36.091Z,15.70
2019-06-08T06:09:06.421Z,15.70
2019-06-08T06:11:33.957Z,15.70
2019-06-08T06:14:01.875Z,15.70
2019-06-08T06:16:29.297Z,15.70
2019-06-08T06:18:57.935Z,15.80
2019-06-08T06:21:25.416Z,15.80
2019-06-08T06:23:53.109Z,15.80
2019-06-08T06:26:21.831Z,15.90
2019-06-08T06:28:49.683Z,15.90
2019-06-08T06:31:17.313Z,16.00
2019-06-08T06:33:45.989Z,16.20
2019-06-08T06:36:13.801Z,16.40
2019-06-08T06:38:41.921Z,16.50
2019-06-08T06:41:09.703Z,16.60
2019-06-08T06:43:37.233Z,16.60
2019-06-08T06:46:04.747Z,16.60
2019-06-08T06:48:32.313Z,16.60
2019-06-08T06:50:59.814Z,16.50
2019-06-08T06:53:27.271Z,16.50
2019-06-08T06:55:54.881Z,16.30
2019-06-08T06:58:22.816Z,16.10
2019-06-08T07:00:51.600Z,16.00
2019-06-08T07:03:20.037Z,16.10
2019-06-08T07:05:47.862Z,16.10
2019-06-08T07:08:15.675Z,16.30
2019-06-08T07:10:44.618Z,16.60
2019-06-08T07:13:12.506Z,16.80
2019-06-08T07:15:41.871Z,16.90
2019-06-08T07:18:10.198Z,16.90
2019-06-08T07:20:37.733Z,17.00
2019-06-08T07:23:05.211Z,17.00
2019-06-08T07:25:32.785Z,17.10
2019-06-08T07:28:00.244Z,17.10
2019-06-08T07:30:27.744Z,17.20
2019-06-08T07:32:55.181Z,17.20
2019-06-08T07:35:24.018Z,17.30
2019-06-08T07:37:52.341Z,17.40
2019-06-08T07:40:21.073Z,17.50
2019-06-08T07:42:49.697Z,17.50
2019-06-08T07:45:18.433Z,17.60
2019-06-08T07:47:47.852Z,17.70
2019-06-08T07:50:16.013Z,17.70
2019-06-08T07:52:43.607Z,17.70
2019-06-08T07:55:11.347Z,17.70
2019-06-08T07:57:38.900Z,17.80
2019-06-08T08:00:09.378Z,18.00
2019-06-08T08:02:36.258Z,18.20
2019-06-08T08:05:04.082Z,18.40
2019-06-08T08:07:31.646Z,18.50
2019-06-08T08:09:59.117Z,18.60
2019-06-08T08:12:26.741Z,18.60
2019-06-08T08:14:55.425Z,18.60
2019-06-08T08:17:24.707Z,18.50
2019-06-08T08:19:53.071Z,18.60
2019-06-08T08:22:25.851Z,18.70
2019-06-08T08:24:52.440Z,18.70
2019-06-08T08:27:19.663Z,18.80
2019-06-08T08:29:47.584Z,19.00
2019-06-08T08:32:18.838Z,19.20
2019-06-08T08:34:47.644Z,19.40
2019-06-08T08:37:17.393Z,19.70
2019-06-08T08:39:44.697Z,19.80
2019-06-08T08:42:12.242Z,19.70
2019-06-08T08:44:39.770Z,19.70
2019-06-08T08:47:07.762Z,19.60
2019-06-08T08:49:37.814Z,19.50
2019-06-08T08:52:04.938Z,19.40
2019-06-08T08:54:32.530Z,19.50
2019-06-08T08:57:03.607Z,19.70
2019-06-08T08:59:29.519Z,19.70
2019-06-08T09:01:59.835Z,19.70
2019-06-08T09:04:27.756Z,19.70
2019-06-08T09:06:57.983Z,19.80
2019-06-08T09:09:25.062Z,19.70
2019-06-08T09:11:53.064Z,19.70
2019-06-08T09:14:21.955Z,19.70
2019-06-08T09:16:49.410Z,19.80
2019-06-08T09:19:20.543Z,20.10
2019-06-08T09:21:48.209Z,20.30
2019-06-08T09:24:18.695Z,20.50
2019-06-08T09:26:47.793Z,20.60
2019-06-08T09:29:15.686Z,20.70
2019-06-08T09:31:43.226Z,20.70
2019-06-08T09:34:14.854Z,20.70
2019-06-08T09:36:40.674Z,20.90
2019-06-08T09:39:11.268Z,20.90
2019-06-08T09:41:38.144Z,21.00
2019-06-08T09:44:08.270Z,21.00
2019-06-08T09:46:35.067Z,21.10
2019-06-08T09:49:07.595Z,21.00
2019-06-08T09:51:32.099Z,21.00
2019-06-08T09:54:02.464Z,21.10
2019-06-08T09:56:29.226Z,21.00
2019-06-08T09:59:01.329Z,21.20
2019-06-08T10:01:28.449Z,21.40
2019-06-08T10:03:56.744Z,21.40
2019-06-08T10:06:25.943Z,21.60
2019-06-08T10:08:54.266Z,21.80
2019-06-08T10:11:21.994Z,21.80
2019-06-08T10:13:49.515Z,21.90
2019-06-08T10:16:18.573Z,22.00
2019-06-08T10:18:51.106Z,22.10
2019-06-08T10:21:18.360Z,22.20
2019-06-08T10:23:48.370Z,22.20
2019-06-08T10:26:17.847Z,22.30
2019-06-08T10:28:45.202Z,22.60
2019-06-08T10:31:12.724Z,22.90
2019-06-08T10:33:40.700Z,23.00
2019-06-08T10:36:12.284Z,23.10
2019-06-08T10:38:41.155Z,23.20
2019-06-08T10:41:15.303Z,23.20
2019-06-08T10:43:38.550Z,23.00
2019-06-08T10:46:12.269Z,23.00
2019-06-08T10:48:37.806Z,23.00
2019-06-08T10:51:10.494Z,23.20
2019-06-08T10:53:46.392Z,23.30
2019-06-08T10:56:09.601Z,23.30
2019-06-08T10:58:34.912Z,23.30
2019-06-08T11:01:05.621Z,23.10
2019-06-08T11:03:31.732Z,23.00
2019-06-08T11:06:01.188Z,23.00
2019-06-08T11:08:29.725Z,22.90
2019-06-08T11:10:57.929Z,22.80
2019-06-08T11:13:28.261Z,22.80
2019-06-08T11:15:58.626Z,23.00
2019-06-08T11:18:25.407Z,23.10
2019-06-08T11:20:52.860Z,23.30
2019-06-08T11:23:20.516Z,23.30
2019-06-08T11:25:48.887Z,23.30
2019-06-08T11:28:18.558Z,23.40
2019-06-08T11:30:48.062Z,23.50
2019-06-08T11:33:15.582Z,23.50
2019-06-08T11:35:43.043Z,23.60
2019-06-08T11:38:12.574Z,23.80
2019-06-08T11:40:39.976Z,24.00
2019-06-08T11:43:08.536Z,24.00
2019-06-08T11:45:37.982Z,24.10
2019-06-08T11:48:06.722Z,23.70
2019-06-08T11:50:41.602Z,23.80
2019-06-08T11:53:07.788Z,24.00
2019-06-08T11:55:38.486Z,24.30
2019-06-08T11:58:09.806Z,24.50
2019-06-08T12:00:53.406Z,24.60
2019-06-08T12:03:21.019Z,24.80
2019-06-08T12:05:50.821Z,24.90
2019-06-08T12:08:20.735Z,25.00
2019-06-08T12:10:49.112Z,25.10
2019-06-08T12:13:17.688Z,25.20
2019-06-08T12:15:48.197Z,25.30
2019-06-08T12:18:17.965Z,25.30
2019-06-08T12:20:44.958Z,25.30
2019-06-08T12:23:12.496Z,25.20
2019-06-08T12:25:40.097Z,25.00
2019-06-08T12:28:08.426Z,25.10
2019-06-08T12:30:38.353Z,25.20
2019-06-08T12:33:05.543Z,25.40
2019-06-08T12:35:33.082Z,25.60
2019-06-08T12:38:00.650Z,25.60
2019-06-08T12:40:28.305Z,25.50
2019-06-08T12:42:59.470Z,25.60
2019-06-08T12:45:27.536Z,25.60
2019-06-08T12:47:55.134Z,25.70
2019-06-08T12:50:22.720Z,25.80
2019-06-08T12:52:50.455Z,25.80
2019-06-08T12:55:24.285Z,25.60
2019-06-08T12:57:48.458Z,25.50
2019-06-08T13:00:19.806Z,25.50
2019-06-08T13:02:50.795Z,25.70
2019-06-08T13:05:21.599Z,25.90
2019-06-08T13:07:48.555Z,25.90
2019-06-08T13:10:19.669Z,25.80
2019-06-08T13:12:47.927Z,25.70
2019-06-08T13:15:17.203Z,25.70
2019-06-08T13:17:47.786Z,25.60
2019-06-08T13:20:21.596Z,25.40
2019-06-08T13:22:48.106Z,25.50
2019-06-08T13:25:35.300Z,25.50
2019-06-08T13:27:47.794Z,25.30
2019-06-08T13:30:18.656Z,25.10
2019-06-08T13:32:45.118Z,25.10
2019-06-08T13:35:12.927Z,25.10
2019-06-08T13:37:40.629Z,25.30
2019-06-08T13:40:11.432Z,25.40
2019-06-08T13:42:38.577Z,25.40
2019-06-08T13:45:07.517Z,25.40
2019-06-08T13:47:38.314Z,25.40
2019-06-08T13:50:05.468Z,25.40
2019-06-08T13:52:33.051Z,25.60
2019-06-08T13:55:00.743Z,25.50
2019-06-08T13:57:28.534Z,25.50
2019-06-08T13:59:57.836Z,25.50
2019-06-08T14:02:29.006Z,25.40
2019-06-08T14:04:55.136Z,25.40
2019-06-08T14:07:26.769Z,25.40
2019-06-08T14:09:52.188Z,25.50
2019-06-08T14:12:21.643Z,25.40
2019-06-08T14:14:49.281Z,25.40
2019-06-08T14:17:20.247Z,25.40
2019-06-08T14:19:48.339Z,25.50
2019-06-08T14:22:20.067Z,25.50
2019-06-08T14:24:47.828Z,25.50
2019-06-08T14:27:15.526Z,25.60
2019-06-08T14:29:43.100Z,25.60
2019-06-08T14:32:10.605Z,25.60
2019-06-08T14:34:38.828Z,25.60
2019-06-08T14:37:08.492Z,25.60
2019-06-08T14:39:35.958Z,25.50
2019-06-08T14:42:03.494Z,25.50
2019-06-08T14:44:32.132Z,25.40
2019-06-08T14:47:12.827Z,25.30
2019-06-08T14:49:41.833Z,25.20
2019-06-08T14:52:10.844Z,25.20
2019-06-08T14:54:38.688Z,25.30
2019-06-08T14:57:07.864Z,25.30
2019-06-08T14:59:35.578Z,25.20
2019-06-08T15:02:03.189Z,25.20
2019-06-08T15:04:36.310Z,25.20
2019-06-08T15:07:00.240Z,25.20
2019-06-08T15:09:27.783Z,25.20
2019-06-08T15:11:57.999Z,25.20
2019-06-08T15:14:25.764Z,25.10
2019-06-08T15:16:53.573Z,25.00
2019-06-08T15:19:22.153Z,24.90
2019-06-08T15:21:50.016Z,24.90
2019-06-08T15:24:18.557Z,24.80
2019-06-08T15:26:48.814Z,24.80
2019-06-08T15:29:15.942Z,24.80
2019-06-08T15:31:43.533Z,24.80
2019-06-08T15:34:11.062Z,24.90
2019-06-08T15:36:38.568Z,24.90
2019-06-08T15:39:07.811Z,24.90
2019-06-08T15:41:35.481Z,24.90
2019-06-08T15:44:02.976Z,24.70
2019-06-08T15:46:30.640Z,24.60
2019-06-08T15:48:58.080Z,24.50
2019-06-08T15:51:26.545Z,24.50
2019-06-08T15:53:55.199Z,24.40
2019-06-08T15:56:35.552Z,24.40
2019-06-08T15:58:52.109Z,24.30
2019-06-08T16:01:19.597Z,24.30
2019-06-08T16:03:47.057Z,24.20
2019-06-08T16:06:14.846Z,24.20
2019-06-08T16:08:42.308Z,24.20
2019-06-08T16:11:09.985Z,24.10
2019-06-08T16:13:37.476Z,24.10
2019-06-08T16:16:04.984Z,24.10
2019-06-08T16:18:33.546Z,24.00
2019-06-08T16:21:01.272Z,24.00
2019-06-08T16:23:30.068Z,24.00
2019-06-08T16:25:57.682Z,24.00
2019-06-08T16:28:36.318Z,24.00
2019-06-08T16:31:07.450Z,23.90
2019-06-08T16:33:35.394Z,23.90
2019-06-08T16:36:02.978Z,23.80
2019-06-08T16:38:30.474Z,23.80
2019-06-08T16:40:57.960Z,23.90
2019-06-08T16:43:26.835Z,23.90
2019-06-08T16:45:54.619Z,23.90
2019-06-08T16:48:22.214Z,24.00
2019-06-08T16:50:49.793Z,24.00
2019-06-08T16:53:17.436Z,24.00
2019-06-08T16:55:44.891Z,24.00
2019-06-08T16:58:12.401Z,23.90
2019-06-08T17:00:42.250Z,23.90
2019-06-08T17:03:09.659Z,23.90
2019-06-08T17:05:38.458Z,23.80
2019-06-08T17:08:06.132Z,23.80
2019-06-08T17:10:34.635Z,23.80
2019-06-08T17:13:02.315Z,23.80
2019-06-08T17:15:30.220Z,23.70
2019-06-08T17:17:58.483Z,23.60
2019-06-08T17:20:26.039Z,23.60
2019-06-08T17:22:54.646Z,23.60
2019-06-08T17:25:22.289Z,23.50
2019-06-08T17:27:50.032Z,23.50
2019-06-08T17:30:18.513Z,23.40
2019-06-08T17:32:45.986Z,23.40
2019-06-08T17:35:13.462Z,23.40
2019-06-08T17:37:42.005Z,23.30
2019-06-08T17:40:10.163Z,23.30
2019-06-08T17:42:37.727Z,23.20
2019-06-08T17:45:05.393Z,23.20
2019-06-08T17:47:34.263Z,23.20
2019-06-08T17:50:02.299Z,23.20
2019-06-08T17:52:29.993Z,23.10
2019-06-08T17:54:57.564Z,23.10
2019-06-08T17:57:25.266Z,23.00
2019-06-08T17:59:53.101Z,23.00
2019-06-08T18:02:27.316Z,22.90
2019-06-08T18:04:50.186Z,22.90
2019-06-08T18:07:17.753Z,22.90
2019-06-08T18:09:45.310Z,22.80
2019-06-08T18:12:13.028Z,22.80
2019-06-08T18:14:42.281Z,22.70
2019-06-08T18:17:13.739Z,22.70
2019-06-08T18:19:43.669Z,22.70
2019-06-08T18:22:15.419Z,22.70
2019-06-08T18:24:41.938Z,22.60
2019-06-08T18:27:09.960Z,22.50
2019-06-08T18:29:39.588Z,22.40
2019-06-08T18:32:08.781Z,22.30
2019-06-08T18:34:37.633Z,22.30
2019-06-08T18:37:08.403Z,22.20
2019-06-08T18:39:38.591Z,22.10
2019-06-08T18:42:05.165Z,21.90
2019-06-08T18:44:33.090Z,21.70
2019-06-08T18:47:00.683Z,21.60
2019-06-08T18:49:29.151Z,21.50
2019-06-08T18:51:58.242Z,21.40
2019-06-08T18:54:27.779Z,21.40
2019-06-08T18:56:55.501Z,21.30
2019-06-08T18:59:23.107Z,21.20
2019-06-08T19:01:50.672Z,21.00
2019-06-08T19:04:18.297Z,20.90
2019-06-08T19:06:48.775Z,20.70
2019-06-08T19:09:17.187Z,20.50
2019-06-08T19:11:46.355Z,20.30
2019-06-08T19:14:14.731Z,20.20
2019-06-08T19:16:44.418Z,20.10
2019-06-08T19:19:11.957Z,19.90
2019-06-08T19:21:40.777Z,19.80
2019-06-08T19:24:09.848Z,19.70
2019-06-08T19:26:39.384Z,19.60
2019-06-08T19:29:07.702Z,19.40
2019-06-08T19:31:38.599Z,19.30
2019-06-08T19:34:07.481Z,19.10
2019-06-08T19:36:34.477Z,19.00
2019-06-08T19:39:02.255Z,18.80
2019-06-08T19:41:31.834Z,18.60
2019-06-08T19:43:59.353Z,18.50
2019-06-08T19:46:27.194Z,18.30
2019-06-08T19:48:55.932Z,18.30
2019-06-08T19:51:24.330Z,18.20
2019-06-08T19:53:54.929Z,18.00
2019-06-08T19:56:22.614Z,17.90
2019-06-08T19:58:58.907Z,17.80
2019-06-08T20:01:19.585Z,17.70
2019-06-08T20:03:47.504Z,17.50
2019-06-08T20:06:14.967Z,17.30
2019-06-08T20:08:42.948Z,17.20
2019-06-08T20:11:10.618Z,17.00
2019-06-08T20:13:38.293Z,16.90
2019-06-08T20:16:08.195Z,16.80
2019-06-08T20:18:37.535Z,16.70
2019-06-08T20:21:09.656Z,16.60
2019-06-08T20:23:34.482Z,16.50
2019-06-08T20:26:08.143Z,16.40
2019-06-08T20:28:37.274Z,16.30
2019-06-08T20:31:07.480Z,16.10
2019-06-08T20:33:37.672Z,15.80
2019-06-08T20:36:05.191Z,15.60
2019-06-08T20:38:38.423Z,15.50
2019-06-08T20:41:03.551Z,15.30
2019-06-08T20:43:31.120Z,15.20
2019-06-08T20:45:59.194Z,15.10
2019-06-08T20:48:27.530Z,15.00
2019-06-08T20:50:57.201Z,14.90
2019-06-08T20:53:28.130Z,14.70
2019-06-08T20:55:57.273Z,14.70
2019-06-08T20:58:25.081Z,14.80
2019-06-08T21:00:52.812Z,14.80
2019-06-08T21:03:21.794Z,14.70
2019-06-08T21:05:51.109Z,14.70
2019-06-08T21:08:19.215Z,14.60
2019-06-08T21:10:49.602Z,14.40
2019-06-08T21:13:17.929Z,14.40
2019-06-08T21:15:50.135Z,14.30
2019-06-08T21:18:15.499Z,14.20
2019-06-08T21:21:08.083Z,14.20
2019-06-08T21:24:07.686Z,14.10
2019-06-08T21:26:38.359Z,14.10
2019-06-08T21:29:08.264Z,14.10
2019-06-08T21:31:37.704Z,14.00
2019-06-08T21:34:07.264Z,13.90
2019-06-08T21:36:34.238Z,13.80
2019-06-08T21:39:02.649Z,13.70
2019-06-08T21:41:32.317Z,13.60
2019-06-08T21:44:02.030Z,13.60
2019-06-08T21:46:29.163Z,13.50
2019-06-08T21:48:59.141Z,13.50
2019-06-08T21:51:26.284Z,13.50
2019-06-08T21:53:54.388Z,13.50
2019-06-08T21:56:23.014Z,13.40
2019-06-08T21:58:51.921Z,13.30
2019-06-08T22:01:20.592Z,13.30
2019-06-08T22:03:49.536Z,13.30
2019-06-08T22:06:17.711Z,13.20
2019-06-08T22:08:47.981Z,13.10
2019-06-08T22:11:17.598Z,13.10
2019-06-08T22:13:44.845Z,13.10
2019-06-08T22:16:12.491Z,13.00
2019-06-08T22:18:40.064Z,13.00
2019-06-08T22:21:08.306Z,12.90
2019-06-08T22:23:36.038Z,12.90
2019-06-08T22:26:03.690Z,12.80
2019-06-08T22:28:31.326Z,12.80
2019-06-08T22:31:01.437Z,12.70
2019-06-08T22:33:28.200Z,12.70
2019-06-08T22:35:58.570Z,12.60
2019-06-08T22:38:25.402Z,12.60
2019-06-08T22:40:52.952Z,12.60
2019-06-08T22:43:21.954Z,12.50
2019-06-08T22:45:49.887Z,12.50
2019-06-08T22:48:18.828Z,12.40
2019-06-08T22:50:47.658Z,12.40
2019-06-08T22:53:15.445Z,12.40
2019-06-08T22:55:42.986Z,12.30
2019-06-08T22:58:10.425Z,12.30
2019-06-08T23:00:51.662Z,12.30
2019-06-08T23:03:08.665Z,12.30
2019-06-08T23:05:37.560Z,12.20
2019-06-08T23:08:06.987Z,12.20
2019-06-08T23:10:34.590Z,12.20
2019-06-08T23:13:02.852Z,12.10
2019-06-08T23:15:31.684Z,12.10
2019-06-08T23:18:01.253Z,12.00
2019-06-08T23:20:28.767Z,12.00
2019-06-08T23:22:58.330Z,12.00
2019-06-08T23:25:27.908Z,12.00
2019-06-08T23:27:56.224Z,11.90
2019-06-08T23:30:23.901Z,11.90
2019-06-08T23:32:51.370Z,11.80
2019-06-08T23:35:19.023Z,11.80
2019-06-08T23:37:47.790Z,11.70
2019-06-08T23:40:17.855Z,11.70
2019-06-08T23:42:47.442Z,11.70
2019-06-08T23:45:14.742Z,11.70
2019-06-08T23:47:42.212Z,11.60
2019-06-08T23:50:11.551Z,11.60
2019-06-08T23:52:39.383Z,11.60
2019-06-08T23:55:10.557Z,11.50
2019-06-08T23:57:38.030Z,11.50
